NOZ1972 ENEV-ENGM
Flight info
| Callsign | NOZ1972 |
|---|---|
| Flight time | N/A |
| Altitude | 38000 |
| Route | AMIMO DCT GUBAV DCT SOMUB DCT BELGU |
| Aircraft | B738/M-SDE2E3FGHIRWXY/LB1 |
Departure
| Time | 2026-04-20 14:26 |
|---|---|
| Airport | Harstad/Narvik Airport (ENEV) |
Arrival
| Time | N/A |
|---|---|
| Airport | Oslo-Gardermoen International Airport (ENGM) |
| Time | Latitude | Longitude | Altitude | Speed | Heading |
|---|---|---|---|---|---|
| 2026-04-20 13:43 | 68.49261 | 16.68333 | 92 ft | 0 kts | 4° |
| 2026-04-20 13:56 | 68.49260 | 16.68333 | 92 ft | 0 kts | 4° |
| 2026-04-20 14:23 | 68.49261 | 16.68332 | 92 ft | 1 kts | 358° |
| 2026-04-20 14:23 | 68.49262 | 16.68311 | 92 ft | 1 kts | 266° |
| 2026-04-20 14:23 | 68.49262 | 16.68217 | 95 ft | 7 kts | 285° |
| 2026-04-20 14:23 | 68.49312 | 16.68169 | 93 ft | 12 kts | 356° |
| 2026-04-20 14:24 | 68.49432 | 16.68149 | 93 ft | 21 kts | 356° |
| 2026-04-20 14:24 | 68.49593 | 16.68137 | 93 ft | 25 kts | 357° |
| 2026-04-20 14:24 | 68.49785 | 16.68111 | 93 ft | 29 kts | 358° |
| 2026-04-20 14:24 | 68.49994 | 16.68090 | 94 ft | 30 kts | 358° |
| 2026-04-20 14:25 | 68.50194 | 16.68068 | 94 ft | 28 kts | 358° |
| 2026-04-20 14:25 | 68.50365 | 16.67972 | 94 ft | 22 kts | 314° |
| 2026-04-20 14:25 | 68.50334 | 16.67694 | 97 ft | 15 kts | 185° |
| 2026-04-20 14:25 | 68.50304 | 16.67696 | 96 ft | 0 kts | 177° |
| 2026-04-20 14:26 | 68.50281 | 16.67699 | 96 ft | 21 kts | 177° |
| 2026-04-20 14:26 | 68.49775 | 16.67757 | 97 ft | 121 kts | 177° |
| 2026-04-20 14:26 | 68.48732 | 16.67881 | 656 ft | 154 kts | 178° |
| 2026-04-20 14:26 | 68.47704 | 16.67945 | 2128 ft | 145 kts | 183° |
| 2026-04-20 14:27 | 68.46664 | 16.68182 | 3101 ft | 167 kts | 181° |
| 2026-04-20 14:27 | 68.45366 | 16.68262 | 3515 ft | 200 kts | 183° |
| 2026-04-20 14:27 | 68.43940 | 16.68414 | 4092 ft | 215 kts | 175° |
| 2026-04-20 14:27 | 68.42518 | 16.70365 | 4467 ft | 246 kts | 138° |
| 2026-04-20 14:28 | 68.41243 | 16.73786 | 4874 ft | 271 kts | 141° |
| 2026-04-20 14:28 | 68.39772 | 16.77208 | 5748 ft | 278 kts | 142° |
| 2026-04-20 14:28 | 68.38307 | 16.80550 | 6694 ft | 281 kts | 142° |
| 2026-04-20 14:28 | 68.36796 | 16.83994 | 7606 ft | 285 kts | 142° |
| 2026-04-20 14:29 | 68.35226 | 16.87336 | 8478 ft | 288 kts | 152° |
| 2026-04-20 14:29 | 68.33334 | 16.88749 | 9361 ft | 283 kts | 186° |
| 2026-04-20 14:29 | 68.31428 | 16.87631 | 10330 ft | 281 kts | 201° |
| 2026-04-20 14:29 | 68.29554 | 16.85820 | 10982 ft | 295 kts | 204° |
| 2026-04-20 14:30 | 68.27547 | 16.83744 | 11200 ft | 323 kts | 204° |
| 2026-04-20 14:30 | 68.25386 | 16.81496 | 11600 ft | 340 kts | 204° |
| 2026-04-20 14:30 | 68.23148 | 16.79195 | 12377 ft | 346 kts | 204° |
| 2026-04-20 14:30 | 68.20888 | 16.76903 | 13214 ft | 349 kts | 204° |
| 2026-04-20 14:31 | 68.18602 | 16.74606 | 14072 ft | 353 kts | 204° |
| 2026-04-20 14:31 | 68.16289 | 16.72298 | 14832 ft | 356 kts | 204° |
| 2026-04-20 14:31 | 68.13947 | 16.69971 | 15540 ft | 361 kts | 204° |
| 2026-04-20 14:31 | 68.11587 | 16.67634 | 16262 ft | 364 kts | 204° |
| 2026-04-20 14:32 | 68.09195 | 16.65274 | 16987 ft | 368 kts | 204° |
| 2026-04-20 14:32 | 68.06809 | 16.62924 | 17694 ft | 372 kts | 204° |
| 2026-04-20 14:32 | 68.04339 | 16.60497 | 18384 ft | 376 kts | 204° |
| 2026-04-20 14:32 | 68.01903 | 16.58109 | 19006 ft | 380 kts | 204° |
| 2026-04-20 14:33 | 67.99408 | 16.55670 | 19666 ft | 382 kts | 204° |
| 2026-04-20 14:33 | 67.96904 | 16.53227 | 20315 ft | 385 kts | 204° |
| 2026-04-20 14:33 | 67.94378 | 16.50768 | 20945 ft | 388 kts | 204° |
| 2026-04-20 14:33 | 67.91828 | 16.48289 | 21541 ft | 392 kts | 204° |
| 2026-04-20 14:34 | 67.89253 | 16.45796 | 22155 ft | 395 kts | 204° |
| 2026-04-20 14:34 | 67.86669 | 16.43249 | 22754 ft | 397 kts | 206° |
| 2026-04-20 14:34 | 67.84146 | 16.40256 | 23330 ft | 398 kts | 210° |
| 2026-04-20 14:34 | 67.81653 | 16.36981 | 23886 ft | 401 kts | 211° |
| 2026-04-20 14:35 | 67.79158 | 16.33615 | 24385 ft | 404 kts | 211° |
| 2026-04-20 14:35 | 67.76647 | 16.30233 | 24875 ft | 406 kts | 211° |
| 2026-04-20 14:35 | 67.74115 | 16.26863 | 25319 ft | 409 kts | 210° |
| 2026-04-20 14:35 | 67.71562 | 16.23508 | 25765 ft | 411 kts | 210° |
| 2026-04-20 14:36 | 67.68987 | 16.20163 | 26243 ft | 413 kts | 210° |
| 2026-04-20 14:36 | 67.66399 | 16.16826 | 26692 ft | 415 kts | 210° |
| 2026-04-20 14:36 | 67.63833 | 16.13537 | 27113 ft | 417 kts | 209° |
| 2026-04-20 14:36 | 67.61207 | 16.10186 | 27528 ft | 420 kts | 209° |
| 2026-04-20 14:37 | 67.58575 | 16.06836 | 27929 ft | 422 kts | 209° |
| 2026-04-20 14:37 | 67.55919 | 16.03467 | 28317 ft | 425 kts | 209° |
| 2026-04-20 14:37 | 67.53254 | 16.00093 | 28715 ft | 427 kts | 209° |
| 2026-04-20 14:37 | 67.50570 | 15.96705 | 29084 ft | 429 kts | 209° |
| 2026-04-20 14:38 | 67.47871 | 15.93306 | 29464 ft | 432 kts | 209° |
| 2026-04-20 14:38 | 67.45156 | 15.89894 | 29815 ft | 434 kts | 209° |
| 2026-04-20 14:38 | 67.42430 | 15.86477 | 30160 ft | 436 kts | 209° |
| 2026-04-20 14:38 | 67.39689 | 15.83050 | 30491 ft | 438 kts | 208° |
| 2026-04-20 14:39 | 67.36938 | 15.79619 | 30794 ft | 439 kts | 208° |
| 2026-04-20 14:39 | 67.34172 | 15.76180 | 31077 ft | 441 kts | 208° |
| 2026-04-20 14:39 | 67.31401 | 15.72745 | 31428 ft | 441 kts | 208° |
| 2026-04-20 14:39 | 67.28637 | 15.69327 | 31821 ft | 440 kts | 208° |
| 2026-04-20 14:40 | 67.25873 | 15.65917 | 32178 ft | 440 kts | 207° |
| 2026-04-20 14:40 | 67.23104 | 15.62508 | 32480 ft | 442 kts | 207° |
| 2026-04-20 14:40 | 67.20324 | 15.59095 | 32795 ft | 442 kts | 207° |
| 2026-04-20 14:40 | 67.17544 | 15.55690 | 33146 ft | 442 kts | 207° |
| 2026-04-20 14:41 | 67.14766 | 15.52296 | 33489 ft | 442 kts | 207° |
| 2026-04-20 14:41 | 67.11981 | 15.48903 | 33803 ft | 443 kts | 207° |
| 2026-04-20 14:41 | 67.09193 | 15.45514 | 34120 ft | 443 kts | 207° |
| 2026-04-20 14:41 | 67.06443 | 15.42180 | 34433 ft | 443 kts | 207° |
| 2026-04-20 14:42 | 67.03651 | 15.38805 | 34693 ft | 444 kts | 207° |
| 2026-04-20 14:42 | 67.00849 | 15.35424 | 34919 ft | 445 kts | 207° |
| 2026-04-20 14:42 | 66.98038 | 15.32043 | 35142 ft | 446 kts | 207° |
| 2026-04-20 14:42 | 66.95224 | 15.28665 | 35380 ft | 447 kts | 207° |
| 2026-04-20 14:43 | 66.92407 | 15.25293 | 35607 ft | 448 kts | 207° |
| 2026-04-20 14:43 | 66.89580 | 15.21919 | 35817 ft | 449 kts | 207° |
| 2026-04-20 14:43 | 66.86747 | 15.18546 | 36037 ft | 449 kts | 207° |
| 2026-04-20 14:43 | 66.83909 | 15.15175 | 36270 ft | 450 kts | 207° |
| 2026-04-20 14:44 | 66.81073 | 15.11815 | 36470 ft | 451 kts | 206° |
| 2026-04-20 14:44 | 66.78225 | 15.08450 | 36663 ft | 452 kts | 206° |
| 2026-04-20 14:44 | 66.75361 | 15.05074 | 36871 ft | 453 kts | 206° |
| 2026-04-20 14:44 | 66.72535 | 15.01753 | 37097 ft | 453 kts | 206° |
| 2026-04-20 14:45 | 66.69672 | 14.98396 | 37304 ft | 454 kts | 206° |
| 2026-04-20 14:45 | 66.66805 | 14.95043 | 37492 ft | 455 kts | 206° |
| 2026-04-20 14:45 | 66.63922 | 14.91680 | 37690 ft | 456 kts | 206° |
| 2026-04-20 14:45 | 66.61042 | 14.88328 | 37904 ft | 456 kts | 206° |
| 2026-04-20 14:46 | 66.58151 | 14.84974 | 38093 ft | 457 kts | 206° |
| 2026-04-20 14:46 | 66.55256 | 14.81623 | 38271 ft | 458 kts | 206° |
| 2026-04-20 14:46 | 66.52363 | 14.78282 | 38457 ft | 459 kts | 206° |
| 2026-04-20 14:46 | 66.49452 | 14.74929 | 38461 ft | 462 kts | 206° |
| 2026-04-20 14:47 | 66.43638 | 14.68261 | 38467 ft | 461 kts | 205° |
| 2026-04-20 14:48 | 66.34953 | 14.58362 | 38484 ft | 455 kts | 205° |
| 2026-04-20 14:48 | 66.29194 | 14.51840 | 38496 ft | 457 kts | 205° |
| 2026-04-20 14:49 | 66.23350 | 14.45252 | 38495 ft | 465 kts | 205° |
| 2026-04-20 14:49 | 66.17416 | 14.38598 | 38487 ft | 471 kts | 205° |
| 2026-04-20 14:50 | 66.11404 | 14.31893 | 38477 ft | 476 kts | 205° |
| 2026-04-20 14:50 | 66.05378 | 14.25209 | 38456 ft | 479 kts | 205° |
| 2026-04-20 14:51 | 65.99281 | 14.18479 | 38456 ft | 480 kts | 205° |
| 2026-04-20 14:51 | 65.93187 | 14.11788 | 38448 ft | 478 kts | 205° |
| 2026-04-20 14:52 | 65.87120 | 14.05160 | 38449 ft | 477 kts | 204° |
| 2026-04-20 14:52 | 65.81045 | 13.98555 | 38458 ft | 477 kts | 204° |
| 2026-04-20 14:53 | 65.74972 | 13.92052 | 38453 ft | 477 kts | 203° |
| 2026-04-20 14:53 | 65.68809 | 13.86075 | 38449 ft | 477 kts | 201° |
| 2026-04-20 14:54 | 65.62615 | 13.80256 | 38454 ft | 477 kts | 201° |
| 2026-04-20 14:54 | 65.56473 | 13.74448 | 38456 ft | 477 kts | 201° |
| 2026-04-20 14:55 | 65.50288 | 13.68572 | 38462 ft | 477 kts | 202° |
| 2026-04-20 14:55 | 65.44100 | 13.62703 | 38455 ft | 478 kts | 202° |
| 2026-04-20 14:56 | 65.37910 | 13.56863 | 38455 ft | 478 kts | 201° |
| 2026-04-20 14:56 | 65.31750 | 13.51082 | 38465 ft | 478 kts | 201° |
| 2026-04-20 14:57 | 65.25544 | 13.45289 | 38463 ft | 478 kts | 201° |
| 2026-04-20 14:57 | 65.19338 | 13.39527 | 38466 ft | 479 kts | 201° |
| 2026-04-20 14:58 | 65.13134 | 13.33795 | 38466 ft | 479 kts | 201° |
| 2026-04-20 14:58 | 65.06916 | 13.28078 | 38460 ft | 479 kts | 201° |
| 2026-04-20 14:59 | 65.00688 | 13.22381 | 38452 ft | 479 kts | 201° |
| 2026-04-20 14:59 | 64.94507 | 13.16755 | 38452 ft | 479 kts | 201° |
| 2026-04-20 15:00 | 64.88277 | 13.11113 | 38455 ft | 479 kts | 201° |
| 2026-04-20 15:00 | 64.82049 | 13.05500 | 38457 ft | 479 kts | 200° |
| 2026-04-20 15:01 | 64.75815 | 12.99910 | 38454 ft | 479 kts | 200° |
| 2026-04-20 15:01 | 64.69627 | 12.94388 | 38462 ft | 478 kts | 200° |
| 2026-04-20 15:02 | 64.63404 | 12.88863 | 38443 ft | 477 kts | 200° |
| 2026-04-20 15:02 | 64.57205 | 12.83386 | 38448 ft | 476 kts | 200° |
| 2026-04-20 15:03 | 64.51013 | 12.77941 | 38450 ft | 476 kts | 200° |
| 2026-04-20 15:03 | 64.44814 | 12.72517 | 38441 ft | 476 kts | 200° |
| 2026-04-20 15:04 | 64.38608 | 12.67112 | 38453 ft | 476 kts | 200° |
| 2026-04-20 15:04 | 64.33439 | 12.62632 | 38462 ft | 476 kts | 200° |
| 2026-04-20 15:05 | 64.26228 | 12.56410 | 38472 ft | 476 kts | 200° |
| 2026-04-20 15:05 | 64.20014 | 12.51076 | 38498 ft | 476 kts | 200° |
| 2026-04-20 15:06 | 64.14842 | 12.46657 | 38506 ft | 477 kts | 199° |
| 2026-04-20 15:06 | 64.08623 | 12.41366 | 38527 ft | 477 kts | 199° |
| 2026-04-20 15:07 | 64.02404 | 12.36100 | 38509 ft | 477 kts | 199° |
| 2026-04-20 15:07 | 63.96180 | 12.30855 | 38453 ft | 477 kts | 199° |
| 2026-04-20 15:08 | 63.89948 | 12.25628 | 38451 ft | 477 kts | 199° |
| 2026-04-20 15:08 | 63.83715 | 12.20424 | 38451 ft | 477 kts | 199° |
| 2026-04-20 15:09 | 63.77478 | 12.15242 | 38439 ft | 477 kts | 199° |
| 2026-04-20 15:09 | 63.71246 | 12.10088 | 38451 ft | 477 kts | 199° |
| 2026-04-20 15:10 | 63.65004 | 12.04951 | 38451 ft | 477 kts | 199° |
| 2026-04-20 15:10 | 63.58768 | 11.99842 | 38460 ft | 477 kts | 199° |
| 2026-04-20 15:11 | 63.52526 | 11.94752 | 38465 ft | 477 kts | 199° |
| 2026-04-20 15:11 | 63.46286 | 11.89686 | 38471 ft | 477 kts | 199° |
| 2026-04-20 15:12 | 63.40085 | 11.84673 | 38460 ft | 477 kts | 199° |
| 2026-04-20 15:12 | 63.33841 | 11.79700 | 38476 ft | 476 kts | 197° |
| 2026-04-20 15:13 | 63.27472 | 11.75642 | 38479 ft | 476 kts | 193° |
| 2026-04-20 15:13 | 63.21066 | 11.71977 | 38485 ft | 476 kts | 193° |
| 2026-04-20 15:14 | 63.14661 | 11.68257 | 38477 ft | 476 kts | 193° |
| 2026-04-20 15:14 | 63.08264 | 11.64462 | 38486 ft | 475 kts | 194° |
| 2026-04-20 15:15 | 63.01877 | 11.60652 | 38492 ft | 475 kts | 194° |
| 2026-04-20 15:15 | 62.95488 | 11.56854 | 38505 ft | 475 kts | 193° |
| 2026-04-20 15:16 | 62.89129 | 11.53096 | 38487 ft | 475 kts | 193° |
| 2026-04-20 15:16 | 62.82750 | 11.49345 | 38472 ft | 475 kts | 193° |
| 2026-04-20 15:17 | 62.76362 | 11.45607 | 38467 ft | 474 kts | 193° |
| 2026-04-20 15:17 | 62.69982 | 11.41889 | 38469 ft | 474 kts | 193° |
| 2026-04-20 15:18 | 62.63602 | 11.38188 | 38462 ft | 475 kts | 193° |
| 2026-04-20 15:18 | 62.57212 | 11.34498 | 38490 ft | 475 kts | 193° |
| 2026-04-20 15:19 | 62.50826 | 11.30827 | 38485 ft | 475 kts | 193° |
| 2026-04-20 15:19 | 62.44477 | 11.27192 | 38489 ft | 475 kts | 193° |
| 2026-04-20 15:20 | 62.38085 | 11.23550 | 38484 ft | 475 kts | 193° |
| 2026-04-20 15:20 | 62.31678 | 11.19915 | 38488 ft | 476 kts | 193° |
| 2026-04-20 15:21 | 62.25263 | 11.16292 | 38489 ft | 477 kts | 193° |
| 2026-04-20 15:21 | 62.18840 | 11.12679 | 38485 ft | 474 kts | 193° |
| 2026-04-20 15:22 | 62.12575 | 11.09166 | 38431 ft | 460 kts | 193° |
| 2026-04-20 15:22 | 62.09509 | 11.07455 | 37896 ft | 460 kts | 193° |
| 2026-04-20 15:22 | 62.06432 | 11.05741 | 37358 ft | 456 kts | 193° |
| 2026-04-20 15:22 | 62.03365 | 11.04038 | 36815 ft | 454 kts | 192° |
| 2026-04-20 15:23 | 62.00319 | 11.02348 | 36202 ft | 453 kts | 192° |
| 2026-04-20 15:23 | 61.97267 | 11.00660 | 35562 ft | 453 kts | 192° |
| 2026-04-20 15:23 | 61.94209 | 10.98971 | 34924 ft | 453 kts | 192° |
| 2026-04-20 15:23 | 61.91165 | 10.97294 | 34236 ft | 452 kts | 192° |
| 2026-04-20 15:24 | 61.88123 | 10.95621 | 33639 ft | 448 kts | 192° |
| 2026-04-20 15:24 | 61.85127 | 10.93974 | 33138 ft | 442 kts | 192° |
| 2026-04-20 15:24 | 61.82166 | 10.92350 | 32699 ft | 436 kts | 192° |
| 2026-04-20 15:24 | 61.79247 | 10.90752 | 32227 ft | 430 kts | 192° |
| 2026-04-20 15:25 | 61.76367 | 10.89180 | 31772 ft | 425 kts | 192° |
| 2026-04-20 15:25 | 61.73522 | 10.87631 | 31319 ft | 421 kts | 192° |
| 2026-04-20 15:25 | 61.70696 | 10.86094 | 30869 ft | 416 kts | 192° |
| 2026-04-20 15:25 | 61.67907 | 10.84582 | 30412 ft | 412 kts | 192° |
| 2026-04-20 15:26 | 61.65149 | 10.83088 | 29938 ft | 407 kts | 192° |
| 2026-04-20 15:26 | 61.62422 | 10.81614 | 29479 ft | 401 kts | 192° |
| 2026-04-20 15:26 | 61.59769 | 10.80182 | 29052 ft | 396 kts | 192° |
| 2026-04-20 15:26 | 61.57110 | 10.78750 | 28621 ft | 392 kts | 192° |
| 2026-04-20 15:27 | 61.54485 | 10.77338 | 28184 ft | 387 kts | 192° |
| 2026-04-20 15:27 | 61.51879 | 10.75939 | 27752 ft | 384 kts | 192° |
| 2026-04-20 15:27 | 61.49301 | 10.74558 | 27313 ft | 380 kts | 192° |
| 2026-04-20 15:27 | 61.46751 | 10.73195 | 26871 ft | 378 kts | 193° |
| 2026-04-20 15:28 | 61.44209 | 10.71838 | 26445 ft | 375 kts | 193° |
| 2026-04-20 15:28 | 61.41688 | 10.70493 | 26025 ft | 373 kts | 193° |
| 2026-04-20 15:28 | 61.39183 | 10.69160 | 25614 ft | 371 kts | 193° |
| 2026-04-20 15:28 | 61.36685 | 10.67832 | 25197 ft | 370 kts | 193° |
| 2026-04-20 15:29 | 61.34192 | 10.66510 | 24788 ft | 370 kts | 193° |
| 2026-04-20 15:29 | 61.31673 | 10.65176 | 24386 ft | 379 kts | 193° |
| 2026-04-20 15:29 | 61.29093 | 10.63812 | 23974 ft | 382 kts | 193° |
| 2026-04-20 15:29 | 61.26583 | 10.62484 | 23800 ft | 371 kts | 193° |
| 2026-04-20 15:30 | 61.24109 | 10.61177 | 23599 ft | 361 kts | 193° |
| 2026-04-20 15:30 | 61.21713 | 10.59916 | 23455 ft | 351 kts | 192° |
| 2026-04-20 15:30 | 61.19346 | 10.58807 | 23153 ft | 345 kts | 189° |
| 2026-04-20 15:30 | 61.17003 | 10.57907 | 22821 ft | 341 kts | 188° |
| 2026-04-20 15:31 | 61.14681 | 10.57060 | 22487 ft | 337 kts | 188° |
| 2026-04-20 15:31 | 61.12381 | 10.56221 | 22124 ft | 335 kts | 188° |
| 2026-04-20 15:31 | 61.10095 | 10.55376 | 21783 ft | 332 kts | 188° |
| 2026-04-20 15:31 | 61.07824 | 10.54526 | 21437 ft | 330 kts | 189° |
| 2026-04-20 15:32 | 61.05604 | 10.53689 | 21106 ft | 327 kts | 188° |
| 2026-04-20 15:32 | 61.03366 | 10.52842 | 20768 ft | 325 kts | 189° |
| 2026-04-20 15:32 | 61.01142 | 10.51998 | 20433 ft | 323 kts | 189° |
| 2026-04-20 15:32 | 60.98943 | 10.51163 | 20108 ft | 321 kts | 189° |
| 2026-04-20 15:33 | 60.96753 | 10.50333 | 19784 ft | 319 kts | 188° |
| 2026-04-20 15:33 | 60.94568 | 10.49506 | 19458 ft | 318 kts | 188° |
| 2026-04-20 15:33 | 60.92394 | 10.48684 | 19138 ft | 317 kts | 188° |
| 2026-04-20 15:33 | 60.90228 | 10.47867 | 18807 ft | 316 kts | 188° |
| 2026-04-20 15:34 | 60.88065 | 10.47053 | 18436 ft | 315 kts | 188° |
| 2026-04-20 15:34 | 60.85914 | 10.46244 | 18069 ft | 313 kts | 188° |
| 2026-04-20 15:34 | 60.83802 | 10.45450 | 17738 ft | 312 kts | 188° |
| 2026-04-20 15:34 | 60.81676 | 10.44652 | 17409 ft | 310 kts | 188° |
| 2026-04-20 15:35 | 60.79563 | 10.43860 | 17084 ft | 308 kts | 188° |
| 2026-04-20 15:35 | 60.77464 | 10.43075 | 16765 ft | 306 kts | 188° |
| 2026-04-20 15:35 | 60.75379 | 10.42296 | 16449 ft | 304 kts | 188° |
| 2026-04-20 15:35 | 60.73307 | 10.41522 | 16139 ft | 302 kts | 188° |
| 2026-04-20 15:36 | 60.71244 | 10.40753 | 15823 ft | 300 kts | 189° |
| 2026-04-20 15:36 | 60.69209 | 10.39994 | 15490 ft | 293 kts | 188° |
| 2026-04-20 15:36 | 60.67227 | 10.39256 | 15185 ft | 285 kts | 188° |
| 2026-04-20 15:36 | 60.65299 | 10.38539 | 14888 ft | 278 kts | 188° |
| 2026-04-20 15:37 | 60.63421 | 10.37841 | 14606 ft | 270 kts | 188° |
| 2026-04-20 15:37 | 60.61573 | 10.37157 | 14341 ft | 270 kts | 188° |
| 2026-04-20 15:37 | 60.59721 | 10.36472 | 14043 ft | 271 kts | 188° |
| 2026-04-20 15:37 | 60.57865 | 10.35787 | 13724 ft | 271 kts | 188° |
| 2026-04-20 15:38 | 60.56009 | 10.35102 | 13434 ft | 271 kts | 188° |
| 2026-04-20 15:38 | 60.54156 | 10.34418 | 13138 ft | 270 kts | 188° |
| 2026-04-20 15:38 | 60.52302 | 10.33735 | 12853 ft | 270 kts | 188° |
| 2026-04-20 15:38 | 60.50456 | 10.33055 | 12565 ft | 269 kts | 188° |
| 2026-04-20 15:39 | 60.48631 | 10.32383 | 12283 ft | 269 kts | 188° |
| 2026-04-20 15:39 | 60.46791 | 10.31708 | 11989 ft | 268 kts | 188° |
| 2026-04-20 15:39 | 60.44951 | 10.31034 | 11695 ft | 267 kts | 188° |
| 2026-04-20 15:39 | 60.43125 | 10.30389 | 11424 ft | 266 kts | 186° |
| 2026-04-20 15:40 | 60.41291 | 10.30016 | 11140 ft | 265 kts | 182° |
| 2026-04-20 15:40 | 60.39453 | 10.29737 | 10865 ft | 264 kts | 182° |
| 2026-04-20 15:40 | 60.37621 | 10.29456 | 10639 ft | 261 kts | 182° |
| 2026-04-20 15:40 | 60.35837 | 10.29170 | 10523 ft | 254 kts | 183° |
| 2026-04-20 15:41 | 60.34081 | 10.28877 | 10319 ft | 254 kts | 182° |
| 2026-04-20 15:41 | 60.32334 | 10.28582 | 10049 ft | 255 kts | 182° |
| 2026-04-20 15:41 | 60.30560 | 10.28280 | 9782 ft | 258 kts | 182° |
| 2026-04-20 15:41 | 60.28724 | 10.27967 | 9540 ft | 265 kts | 182° |
| 2026-04-20 15:42 | 60.26885 | 10.27653 | 9496 ft | 271 kts | 182° |
| 2026-04-20 15:42 | 60.24969 | 10.27325 | 9462 ft | 275 kts | 182° |
| 2026-04-20 15:42 | 60.23085 | 10.27002 | 9448 ft | 275 kts | 183° |
| 2026-04-20 15:42 | 60.21180 | 10.26676 | 9444 ft | 274 kts | 182° |
| 2026-04-20 15:43 | 60.19272 | 10.26349 | 9455 ft | 274 kts | 183° |
| 2026-04-20 15:43 | 60.17371 | 10.26024 | 9449 ft | 274 kts | 182° |
| 2026-04-20 15:43 | 60.15485 | 10.25702 | 9442 ft | 269 kts | 183° |
| 2026-04-20 15:43 | 60.13651 | 10.25388 | 9429 ft | 259 kts | 183° |
| 2026-04-20 15:44 | 60.11917 | 10.24735 | 9438 ft | 251 kts | 199° |
| 2026-04-20 15:44 | 60.10323 | 10.23391 | 9453 ft | 247 kts | 200° |
| 2026-04-20 15:44 | 60.08701 | 10.22163 | 9473 ft | 252 kts | 198° |
| 2026-04-20 15:44 | 60.07035 | 10.20960 | 9473 ft | 256 kts | 198° |
| 2026-04-20 15:45 | 60.05358 | 10.19755 | 9464 ft | 255 kts | 198° |
| 2026-04-20 15:45 | 60.03696 | 10.18562 | 9445 ft | 252 kts | 198° |
| 2026-04-20 15:45 | 60.02025 | 10.17647 | 9435 ft | 247 kts | 181° |
| 2026-04-20 15:45 | 60.00319 | 10.17800 | 9476 ft | 246 kts | 174° |
| 2026-04-20 15:46 | 59.98611 | 10.17921 | 9466 ft | 251 kts | 177° |
| 2026-04-20 15:46 | 59.96862 | 10.17961 | 9448 ft | 251 kts | 177° |
| 2026-04-20 15:46 | 59.95119 | 10.17990 | 9444 ft | 249 kts | 177° |
| 2026-04-20 15:46 | 59.93388 | 10.18019 | 9445 ft | 248 kts | 177° |
| 2026-04-20 15:47 | 59.91673 | 10.18097 | 9442 ft | 245 kts | 171° |
| 2026-04-20 15:47 | 59.90068 | 10.19082 | 9473 ft | 241 kts | 153° |
| 2026-04-20 15:47 | 59.88509 | 10.20424 | 9461 ft | 247 kts | 156° |
| 2026-04-20 15:47 | 59.86887 | 10.21652 | 9462 ft | 249 kts | 157° |
| 2026-04-20 15:48 | 59.85271 | 10.22855 | 9446 ft | 247 kts | 157° |
| 2026-04-20 15:48 | 59.83658 | 10.24051 | 9445 ft | 246 kts | 157° |
| 2026-04-20 15:48 | 59.82058 | 10.25237 | 9442 ft | 245 kts | 157° |
| 2026-04-20 15:48 | 59.80567 | 10.26771 | 9447 ft | 240 kts | 139° |
| 2026-04-20 15:49 | 59.79298 | 10.28939 | 9450 ft | 242 kts | 138° |
| 2026-04-20 15:49 | 59.77991 | 10.31031 | 9465 ft | 245 kts | 139° |
| 2026-04-20 15:49 | 59.76825 | 10.33465 | 9430 ft | 242 kts | 115° |
| 2026-04-20 15:49 | 59.76521 | 10.36661 | 9432 ft | 238 kts | 83° |
| 2026-04-20 15:50 | 59.77034 | 10.39809 | 9193 ft | 244 kts | 59° |
| 2026-04-20 15:50 | 59.78116 | 10.42408 | 8989 ft | 245 kts | 45° |
| 2026-04-20 15:50 | 59.79334 | 10.44763 | 8756 ft | 243 kts | 45° |
| 2026-04-20 15:50 | 59.80538 | 10.47083 | 8536 ft | 240 kts | 45° |
| 2026-04-20 15:51 | 59.81729 | 10.49383 | 8333 ft | 237 kts | 45° |
| 2026-04-20 15:51 | 59.82902 | 10.51664 | 8120 ft | 235 kts | 45° |
| 2026-04-20 15:51 | 59.84068 | 10.53940 | 7629 ft | 245 kts | 45° |
| 2026-04-20 15:51 | 59.85276 | 10.56308 | 7326 ft | 245 kts | 45° |
| 2026-04-20 15:52 | 59.86488 | 10.58689 | 7092 ft | 243 kts | 45° |
| 2026-04-20 15:52 | 59.87683 | 10.61043 | 6869 ft | 240 kts | 45° |
| 2026-04-20 15:52 | 59.88861 | 10.63368 | 6641 ft | 237 kts | 45° |
| 2026-04-20 15:53 | 59.91167 | 10.67929 | 6215 ft | 230 kts | 45° |
| 2026-04-20 15:53 | 59.92295 | 10.70162 | 6025 ft | 227 kts | 45° |
| 2026-04-20 15:53 | 59.93406 | 10.72367 | 5830 ft | 224 kts | 45° |
| 2026-04-20 15:53 | 59.94506 | 10.74553 | 5637 ft | 222 kts | 45° |
| 2026-04-20 15:54 | 59.95230 | 10.75994 | 5520 ft | 221 kts | 45° |
| 2026-04-20 15:54 | 59.96318 | 10.78161 | 5330 ft | 220 kts | 45° |
| 2026-04-20 15:54 | 59.97342 | 10.80421 | 5128 ft | 220 kts | 58° |
| 2026-04-20 15:54 | 59.97786 | 10.83309 | 4979 ft | 218 kts | 79° |
| 2026-04-20 15:55 | 59.98099 | 10.86298 | 4761 ft | 219 kts | 74° |
| 2026-04-20 15:55 | 59.98468 | 10.89229 | 4569 ft | 216 kts | 73° |
| 2026-04-20 15:55 | 59.98830 | 10.92117 | 4375 ft | 213 kts | 74° |
| 2026-04-20 15:55 | 59.99208 | 10.94941 | 4198 ft | 209 kts | 67° |
| 2026-04-20 15:56 | 60.00095 | 10.97098 | 3999 ft | 200 kts | 23° |
| 2026-04-20 15:56 | 60.01435 | 10.97653 | 3907 ft | 198 kts | 9° |
| 2026-04-20 15:56 | 60.02770 | 10.98404 | 3723 ft | 196 kts | 18° |
| 2026-04-20 15:56 | 60.04051 | 10.99130 | 3602 ft | 186 kts | 13° |
| 2026-04-20 15:57 | 60.05276 | 10.99758 | 3426 ft | 179 kts | 14° |
| 2026-04-20 15:57 | 60.06455 | 11.00415 | 3197 ft | 172 kts | 15° |
| 2026-04-20 15:57 | 60.07568 | 11.01053 | 2980 ft | 161 kts | 15° |
| 2026-04-20 15:57 | 60.08628 | 11.01666 | 2750 ft | 157 kts | 15° |
| 2026-04-20 15:58 | 60.09648 | 11.02256 | 2533 ft | 152 kts | 14° |
| 2026-04-20 15:58 | 60.10635 | 11.02828 | 2322 ft | 146 kts | 14° |
| 2026-04-20 15:58 | 60.11618 | 11.03395 | 2147 ft | 148 kts | 14° |
| 2026-04-20 15:58 | 60.12600 | 11.03962 | 1924 ft | 146 kts | 14° |